createdAt,value
2023-10-21T00:00:50.286Z,16.65
2023-10-21T00:03:16.700Z,16.19
2023-10-21T00:05:43.196Z,16.39
2023-10-21T00:08:09.791Z,16.65
2023-10-21T00:10:36.206Z,16.79
2023-10-21T00:13:02.714Z,16.85
2023-10-21T00:15:29.192Z,16.89
2023-10-21T00:17:55.647Z,16.74
2023-10-21T00:20:22.113Z,16.69
2023-10-21T00:22:48.478Z,16.65
2023-10-21T00:25:14.892Z,16.71
2023-10-21T00:27:41.237Z,16.59
2023-10-21T00:30:08.187Z,16.63
2023-10-21T00:32:35.111Z,16.66
2023-10-21T00:35:02.046Z,16.54
2023-10-21T00:37:28.436Z,16.49
2023-10-21T00:39:54.795Z,16.59
2023-10-21T00:42:21.205Z,16.62
2023-10-21T00:44:48.133Z,16.63
2023-10-21T00:47:14.595Z,16.56
2023-10-21T00:49:41.080Z,16.62
2023-10-21T00:52:07.813Z,16.56
2023-10-21T00:54:34.329Z,16.33
2023-10-21T00:57:00.861Z,16.21
2023-10-21T00:59:27.282Z,16.31
2023-10-21T01:01:53.715Z,16.08
2023-10-21T01:04:20.892Z,15.88
2023-10-21T01:06:47.548Z,16.14
2023-10-21T01:09:17.068Z,16.25
2023-10-21T01:11:43.818Z,16.11
2023-10-21T01:14:10.610Z,16.22
2023-10-21T01:16:37.553Z,16.14
2023-10-21T01:19:07.210Z,16.04
2023-10-21T01:21:33.719Z,15.97
2023-10-21T01:24:00.147Z,15.84
2023-10-21T01:26:26.767Z,15.76
2023-10-21T01:28:53.143Z,15.30
2023-10-21T01:31:19.505Z,14.99
2023-10-21T01:33:46.171Z,15.17
2023-10-21T01:36:12.749Z,14.79
2023-10-21T01:38:39.977Z,14.71
2023-10-21T01:41:09.216Z,15.10
2023-10-21T01:43:35.580Z,15.53
2023-10-21T01:46:06.178Z,15.27
2023-10-21T01:48:32.723Z,15.27
2023-10-21T01:51:01.316Z,14.99
2023-10-21T01:53:27.762Z,15.06
2023-10-21T01:56:04.281Z,15.15
2023-10-21T01:58:32.724Z,15.67
2023-10-21T02:00:59.173Z,15.53
2023-10-21T02:03:26.633Z,15.42
2023-10-21T02:05:53.349Z,15.66
2023-10-21T02:08:19.728Z,15.79
2023-10-21T02:10:46.104Z,16.12
2023-10-21T02:13:12.465Z,16.26
2023-10-21T02:15:40.063Z,16.30
2023-10-21T02:18:09.409Z,15.57
2023-10-21T02:20:37.070Z,15.55
2023-10-21T02:23:04.143Z,15.37
2023-10-21T02:25:32.503Z,15.31
2023-10-21T02:28:00.897Z,15.30
2023-10-21T02:30:27.389Z,15.03
2023-10-21T02:32:53.871Z,15.40
2023-10-21T02:35:20.395Z,15.41
2023-10-21T02:37:46.858Z,15.62
2023-10-21T02:40:17.045Z,15.31
2023-10-21T02:42:45.332Z,15.46
2023-10-21T02:45:12.113Z,15.23
2023-10-21T02:47:38.992Z,15.66
2023-10-21T02:50:05.973Z,15.91
2023-10-21T02:52:32.536Z,15.77
2023-10-21T02:54:58.871Z,16.08
2023-10-21T02:57:25.465Z,16.09
2023-10-21T02:59:52.030Z,16.11
2023-10-21T03:02:18.419Z,16.17
2023-10-21T03:04:44.912Z,15.89
2023-10-21T03:07:11.596Z,15.82
2023-10-21T03:09:38.247Z,15.82
2023-10-21T03:12:05.142Z,16.25
2023-10-21T03:14:31.523Z,16.29
2023-10-21T03:16:57.894Z,16.09
2023-10-21T03:19:24.300Z,16.14
2023-10-21T03:21:50.694Z,15.99
2023-10-21T03:24:17.140Z,15.81
2023-10-21T03:26:43.562Z,15.96
2023-10-21T03:29:12.873Z,15.94
2023-10-21T03:31:40.697Z,15.89
2023-10-21T03:34:07.121Z,15.99
2023-10-21T03:36:33.492Z,15.96
2023-10-21T03:38:59.914Z,15.87
2023-10-21T03:41:26.302Z,16.00
2023-10-21T03:43:52.679Z,15.74
2023-10-21T03:46:19.080Z,15.49
2023-10-21T03:48:45.951Z,15.47
2023-10-21T03:51:13.216Z,15.61
2023-10-21T03:53:44.555Z,15.87
2023-10-21T03:56:11.804Z,15.48
2023-10-21T03:58:39.010Z,15.65
2023-10-21T04:01:06.204Z,15.25
2023-10-21T04:03:33.676Z,15.10
2023-10-21T04:06:00.895Z,15.21
2023-10-21T04:08:28.879Z,15.24
2023-10-21T04:10:55.710Z,15.73
2023-10-21T04:13:22.541Z,15.67
2023-10-21T04:15:50.351Z,15.49
2023-10-21T04:18:17.211Z,15.50
2023-10-21T04:20:43.788Z,15.42
2023-10-21T04:23:10.169Z,15.35
2023-10-21T04:25:36.566Z,15.56
2023-10-21T04:28:03.093Z,15.53
2023-10-21T04:30:29.703Z,15.50
2023-10-21T04:32:56.690Z,15.60
2023-10-21T04:35:23.517Z,15.63
2023-10-21T04:37:49.959Z,15.77
2023-10-21T04:40:16.624Z,15.86
2023-10-21T04:42:43.041Z,15.90
2023-10-21T04:45:10.641Z,15.80
2023-10-21T04:47:37.654Z,15.47
2023-10-21T04:50:05.261Z,15.42
2023-10-21T04:52:32.330Z,15.29
2023-10-21T04:54:59.209Z,14.98
2023-10-21T04:57:25.726Z,15.18
2023-10-21T04:59:52.153Z,15.06
2023-10-21T05:02:18.540Z,15.08
2023-10-21T05:04:44.998Z,15.41
2023-10-21T05:07:11.459Z,15.38
2023-10-21T05:09:37.826Z,15.51
2023-10-21T05:12:04.537Z,14.90
2023-10-21T05:14:31.020Z,14.73
2023-10-21T05:16:57.456Z,14.82
2023-10-21T05:19:24.188Z,15.14
2023-10-21T05:21:50.613Z,15.31
2023-10-21T05:24:16.973Z,14.97
2023-10-21T05:26:43.511Z,14.90
2023-10-21T05:29:09.930Z,14.96
2023-10-21T05:31:36.740Z,14.91
2023-10-21T05:34:03.450Z,15.18
2023-10-21T05:36:30.738Z,15.20
2023-10-21T05:38:57.824Z,14.91
2023-10-21T05:41:24.583Z,14.95
2023-10-21T05:43:50.977Z,14.89
2023-10-21T05:46:17.422Z,14.94
2023-10-21T05:48:43.943Z,15.12
2023-10-21T05:51:10.422Z,14.91
2023-10-21T05:53:36.873Z,15.01
2023-10-21T05:56:03.854Z,15.18
2023-10-21T05:58:33.821Z,15.13
2023-10-21T06:01:09.558Z,15.15
2023-10-21T06:03:40.483Z,15.29
2023-10-21T06:06:08.553Z,15.49
2023-10-21T06:08:35.099Z,15.44
2023-10-21T06:11:01.463Z,15.21
2023-10-21T06:13:27.954Z,15.19
2023-10-21T06:15:54.692Z,14.93
2023-10-21T06:18:21.879Z,15.20
2023-10-21T06:20:52.667Z,15.13
2023-10-21T06:23:19.193Z,15.48
2023-10-21T06:25:46.615Z,15.18
2023-10-21T06:28:14.719Z,15.39
2023-10-21T06:30:42.201Z,15.67
2023-10-21T06:33:12.747Z,15.55
2023-10-21T06:35:40.338Z,15.38
2023-10-21T06:38:09.604Z,15.21
2023-10-21T06:40:49.844Z,15.40
2023-10-21T06:43:22.028Z,15.49
2023-10-21T06:45:48.463Z,15.18
2023-10-21T06:48:14.962Z,15.38
2023-10-21T06:50:41.905Z,15.29
2023-10-21T06:53:08.322Z,15.36
2023-10-21T06:55:45.599Z,15.36
2023-10-21T06:58:13.029Z,15.35
2023-10-21T07:00:40.079Z,15.36
2023-10-21T07:03:07.126Z,15.41
2023-10-21T07:05:34.693Z,15.52
2023-10-21T07:08:01.145Z,15.39
2023-10-21T07:10:31.819Z,15.14
2023-10-21T07:13:01.465Z,15.32
2023-10-21T07:15:35.018Z,15.10
2023-10-21T07:18:01.747Z,15.22
2023-10-21T07:20:28.436Z,15.23
2023-10-21T07:22:55.768Z,15.17
2023-10-21T07:25:24.628Z,15.41
2023-10-21T07:27:51.276Z,15.59
2023-10-21T07:30:17.808Z,15.52
2023-10-21T07:32:45.476Z,15.58
2023-10-21T07:35:11.882Z,15.24
2023-10-21T07:37:38.581Z,15.39
2023-10-21T07:40:06.750Z,15.27
2023-10-21T07:42:33.236Z,15.26
2023-10-21T07:44:59.813Z,15.34
2023-10-21T07:47:26.409Z,15.09
2023-10-21T07:49:55.664Z,15.14
2023-10-21T07:52:23.107Z,15.42
2023-10-21T07:54:49.580Z,15.62
2023-10-21T07:57:16.820Z,15.75
2023-10-21T07:59:43.462Z,15.22
2023-10-21T08:02:09.953Z,15.24
2023-10-21T08:04:36.702Z,15.51
2023-10-21T08:07:03.408Z,15.23
2023-10-21T08:09:29.857Z,15.35
2023-10-21T08:11:56.290Z,15.79
2023-10-21T08:14:22.694Z,15.48
2023-10-21T08:16:49.150Z,15.92
2023-10-21T08:19:15.547Z,15.44
2023-10-21T08:21:42.177Z,15.24
2023-10-21T08:24:08.962Z,15.94
2023-10-21T08:26:35.450Z,16.25
2023-10-21T08:29:02.090Z,15.57
2023-10-21T08:31:29.523Z,15.35
2023-10-21T08:33:56.144Z,16.56
2023-10-21T08:36:23.473Z,16.21
2023-10-21T08:38:51.556Z,16.20
2023-10-21T08:41:18.369Z,16.16
2023-10-21T08:43:48.357Z,15.99
2023-10-21T08:46:17.074Z,15.82
2023-10-21T08:48:48.519Z,16.15
2023-10-21T08:51:22.970Z,15.98
2023-10-21T08:53:53.745Z,16.19
2023-10-21T08:56:20.454Z,15.89
2023-10-21T08:58:47.288Z,16.69
2023-10-21T09:01:17.252Z,16.46
2023-10-21T09:03:44.305Z,16.71
2023-10-21T09:06:12.280Z,16.53
2023-10-21T09:08:41.880Z,16.32
2023-10-21T09:11:09.348Z,16.30
2023-10-21T09:13:36.977Z,15.73
2023-10-21T09:16:06.161Z,16.40
2023-10-21T09:18:36.142Z,16.65
2023-10-21T09:21:03.762Z,16.92
2023-10-21T09:23:31.044Z,16.57
2023-10-21T09:25:57.399Z,16.11
2023-10-21T09:28:25.355Z,16.72
2023-10-21T09:31:03.345Z,17.80
2023-10-21T09:33:29.814Z,17.88
2023-10-21T09:36:18.857Z,17.08
2023-10-21T09:38:52.457Z,17.98
2023-10-21T09:41:20.783Z,17.64
2023-10-21T09:43:48.739Z,18.04
2023-10-21T09:46:19.151Z,17.24
2023-10-21T09:48:48.910Z,17.49
2023-10-21T09:51:18.973Z,17.86
2023-10-21T09:53:49.020Z,17.84
2023-10-21T09:56:18.925Z,17.78
2023-10-21T09:58:46.738Z,17.93
2023-10-21T10:01:14.125Z,17.26
2023-10-21T10:03:45.074Z,17.38
2023-10-21T10:06:13.945Z,17.87
2023-10-21T10:08:42.050Z,17.45
2023-10-21T10:11:16.769Z,17.78
2023-10-21T10:13:50.311Z,18.37
2023-10-21T10:16:28.611Z,17.78
2023-10-21T10:18:58.113Z,17.87
2023-10-21T10:21:25.075Z,18.38
2023-10-21T10:23:53.214Z,17.98
2023-10-21T10:26:35.112Z,17.95
2023-10-21T10:29:19.566Z,18.48
2023-10-21T10:31:49.758Z,18.55
2023-10-21T10:34:18.394Z,17.65
2023-10-21T10:36:47.524Z,17.91
2023-10-21T10:39:41.291Z,18.37
2023-10-21T10:42:08.359Z,18.14
2023-10-21T10:44:36.008Z,18.61
2023-10-21T10:47:06.280Z,18.83
2023-10-21T10:49:59.091Z,18.01
2023-10-21T10:52:36.670Z,18.79
2023-10-21T10:55:04.401Z,19.08
2023-10-21T10:57:31.545Z,18.76
2023-10-21T10:59:58.496Z,19.06
2023-10-21T11:02:29.319Z,19.13
2023-10-21T11:05:01.695Z,19.79
2023-10-21T11:07:31.926Z,20.23
2023-10-21T11:10:07.591Z,19.16
2023-10-21T11:12:34.082Z,18.74
2023-10-21T11:15:07.148Z,18.24
2023-10-21T11:17:34.177Z,18.98
2023-10-21T11:20:03.772Z,18.60
2023-10-21T11:22:30.544Z,18.07
2023-10-21T11:24:57.207Z,19.22
2023-10-21T11:27:23.995Z,18.76
2023-10-21T11:29:53.377Z,18.40
2023-10-21T11:32:28.454Z,18.46
2023-10-21T11:35:05.666Z,19.26
2023-10-21T11:37:33.021Z,18.77
2023-10-21T11:39:59.593Z,18.79
2023-10-21T11:42:26.132Z,18.07
2023-10-21T11:45:01.028Z,18.06
2023-10-21T11:47:29.099Z,18.47
2023-10-21T11:49:57.008Z,19.21
2023-10-21T11:52:25.688Z,18.82
2023-10-21T11:55:16.417Z,18.58
2023-10-21T11:58:03.677Z,18.66
2023-10-21T12:00:39.292Z,19.45
2023-10-21T12:03:40.626Z,18.61
2023-10-21T12:06:09.995Z,19.80
2023-10-21T12:09:06.023Z,19.85
2023-10-21T12:11:32.420Z,20.95
2023-10-21T12:14:04.345Z,20.13
2023-10-21T12:16:35.796Z,19.50
2023-10-21T12:19:05.338Z,20.38
2023-10-21T12:22:00.372Z,20.56
2023-10-21T12:24:26.825Z,18.84
2023-10-21T12:26:53.301Z,18.85
2023-10-21T12:29:32.217Z,19.04
2023-10-21T12:32:17.698Z,19.04
2023-10-21T12:35:07.261Z,19.73
2023-10-21T12:37:52.136Z,20.46
2023-10-21T12:40:34.919Z,20.90
2023-10-21T12:43:16.710Z,19.47
2023-10-21T12:45:47.565Z,18.39
2023-10-21T12:48:20.830Z,18.23
2023-10-21T12:50:51.657Z,19.03
2023-10-21T12:53:18.998Z,18.28
2023-10-21T12:55:45.713Z,18.91
2023-10-21T12:58:12.264Z,19.22
2023-10-21T13:00:42.639Z,18.07
2023-10-21T13:03:12.378Z,17.89
2023-10-21T13:05:39.796Z,18.15
2023-10-21T13:08:10.147Z,17.94
2023-10-21T13:10:37.818Z,18.95
2023-10-21T13:13:06.953Z,18.90
2023-10-21T13:15:33.598Z,18.75
2023-10-21T13:18:04.688Z,18.08
2023-10-21T13:20:31.747Z,18.10
2023-10-21T13:22:58.094Z,18.71
2023-10-21T13:25:28.988Z,19.00
2023-10-21T13:27:57.836Z,19.08
2023-10-21T13:30:24.285Z,18.64
2023-10-21T13:32:52.283Z,18.70
2023-10-21T13:35:18.747Z,18.88
2023-10-21T13:37:46.860Z,18.96
2023-10-21T13:40:17.644Z,18.40
2023-10-21T13:42:52.267Z,18.88
2023-10-21T13:45:21.925Z,18.46
2023-10-21T13:47:54.584Z,18.41
2023-10-21T13:50:24.670Z,17.91
2023-10-21T13:52:58.354Z,18.46
2023-10-21T13:55:25.345Z,18.33
2023-10-21T13:57:51.863Z,18.18
2023-10-21T14:00:35.088Z,18.31
2023-10-21T14:03:10.671Z,18.09
2023-10-21T14:05:42.693Z,18.45
2023-10-21T14:08:11.949Z,18.95
2023-10-21T14:10:44.649Z,18.40
2023-10-21T14:13:16.795Z,18.48
2023-10-21T14:15:45.418Z,18.66
2023-10-21T14:18:12.108Z,17.98
2023-10-21T14:20:43.334Z,18.01
2023-10-21T14:23:10.410Z,18.03
2023-10-21T14:25:41.166Z,18.82
2023-10-21T14:28:12.218Z,18.21
2023-10-21T14:30:43.100Z,18.64
2023-10-21T14:33:12.440Z,18.63
2023-10-21T14:35:40.349Z,18.64
2023-10-21T14:38:07.587Z,18.32
2023-10-21T14:40:34.378Z,17.89
2023-10-21T14:43:00.951Z,18.18
2023-10-21T14:45:27.370Z,17.99
2023-10-21T14:47:53.969Z,18.08
2023-10-21T14:50:20.398Z,18.12
2023-10-21T14:52:46.763Z,18.14
2023-10-21T14:55:13.355Z,18.35
2023-10-21T14:57:39.833Z,18.06
2023-10-21T15:00:07.122Z,18.40
2023-10-21T15:02:34.785Z,18.18
2023-10-21T15:05:01.290Z,17.87
2023-10-21T15:07:27.697Z,18.25
2023-10-21T15:09:54.082Z,18.10
2023-10-21T15:12:20.623Z,18.24
2023-10-21T15:14:55.842Z,18.38
2023-10-21T15:17:26.438Z,18.90
2023-10-21T15:19:52.986Z,18.12
2023-10-21T15:22:19.357Z,18.17
2023-10-21T15:24:45.853Z,18.17
2023-10-21T15:27:12.809Z,18.15
2023-10-21T15:29:39.238Z,17.64
2023-10-21T15:32:08.537Z,18.16
2023-10-21T15:34:35.196Z,17.90
2023-10-21T15:37:01.744Z,17.98
2023-10-21T15:39:28.215Z,17.70
2023-10-21T15:41:54.634Z,17.86
2023-10-21T15:44:21.689Z,17.69
2023-10-21T15:46:48.048Z,18.12
2023-10-21T15:49:14.428Z,17.54
2023-10-21T15:51:40.914Z,17.68
2023-10-21T15:54:07.458Z,17.64
2023-10-21T15:56:34.292Z,17.62
2023-10-21T15:59:00.797Z,17.18
2023-10-21T16:01:30.016Z,17.09
2023-10-21T16:03:56.635Z,17.39
2023-10-21T16:06:23.179Z,17.58
2023-10-21T16:08:49.658Z,17.56
2023-10-21T16:11:16.800Z,17.78
2023-10-21T16:13:43.238Z,17.34
2023-10-21T16:16:10.015Z,17.44
2023-10-21T16:18:36.577Z,17.44
2023-10-21T16:21:03.143Z,17.59
2023-10-21T16:23:29.536Z,17.64
2023-10-21T16:25:57.878Z,17.24
2023-10-21T16:28:24.435Z,17.05
2023-10-21T16:30:50.904Z,17.14
2023-10-21T16:33:17.418Z,16.78
2023-10-21T16:35:45.159Z,17.00
2023-10-21T16:38:12.334Z,17.21
2023-10-21T16:40:38.915Z,17.36
2023-10-21T16:43:05.474Z,16.94
2023-10-21T16:45:31.862Z,17.23
2023-10-21T16:47:58.287Z,17.07
2023-10-21T16:50:25.137Z,17.06
2023-10-21T16:52:51.500Z,17.00
2023-10-21T16:55:17.941Z,17.14
2023-10-21T16:57:44.387Z,16.93
2023-10-21T17:00:13.623Z,16.88
2023-10-21T17:02:41.154Z,16.98
2023-10-21T17:05:08.208Z,17.02
2023-10-21T17:07:34.683Z,16.83
2023-10-21T17:10:01.076Z,16.88
2023-10-21T17:12:28.375Z,16.69
2023-10-21T17:14:54.824Z,16.57
2023-10-21T17:17:21.172Z,16.66
2023-10-21T17:19:47.632Z,16.73
2023-10-21T17:22:14.031Z,16.65
2023-10-21T17:24:40.550Z,16.45
2023-10-21T17:27:06.926Z,16.52
2023-10-21T17:29:33.275Z,16.51
2023-10-21T17:31:59.625Z,16.72
2023-10-21T17:34:28.530Z,16.43
2023-10-21T17:36:56.340Z,16.54
2023-10-21T17:39:22.783Z,16.83
2023-10-21T17:41:49.253Z,16.82
2023-10-21T17:44:16.152Z,16.33
2023-10-21T17:46:44.702Z,16.53
2023-10-21T17:49:14.169Z,16.46
2023-10-21T17:51:40.602Z,16.80
2023-10-21T17:54:08.443Z,16.75
2023-10-21T17:56:37.824Z,16.27
2023-10-21T17:59:07.114Z,16.49
2023-10-21T18:01:34.643Z,16.38
2023-10-21T18:04:01.319Z,16.36
2023-10-21T18:06:28.711Z,16.43
2023-10-21T18:08:55.888Z,16.17
2023-10-21T18:11:23.450Z,16.33
2023-10-21T18:13:49.938Z,16.09
2023-10-21T18:16:17.654Z,16.45
2023-10-21T18:18:44.405Z,16.29
2023-10-21T18:21:11.468Z,16.32
2023-10-21T18:23:37.945Z,16.18
2023-10-21T18:26:06.124Z,16.26
2023-10-21T18:28:34.997Z,16.21
2023-10-21T18:31:01.758Z,16.16
2023-10-21T18:33:28.391Z,16.61
2023-10-21T18:35:54.822Z,16.36
2023-10-21T18:38:21.250Z,16.16
2023-10-21T18:40:47.795Z,16.59
2023-10-21T18:43:14.274Z,16.69
2023-10-21T18:45:40.788Z,16.38
2023-10-21T18:48:07.245Z,16.56
2023-10-21T18:50:33.718Z,16.53
2023-10-21T18:53:00.163Z,16.81
2023-10-21T18:55:26.611Z,16.29
2023-10-21T18:57:53.010Z,16.25
2023-10-21T19:00:19.668Z,16.15
2023-10-21T19:02:46.199Z,16.50
2023-10-21T19:05:12.626Z,16.41
2023-10-21T19:07:39.312Z,16.20
2023-10-21T19:10:07.605Z,16.32
2023-10-21T19:12:34.215Z,16.58
2023-10-21T19:15:01.557Z,16.25
2023-10-21T19:17:28.444Z,16.23
2023-10-21T19:19:54.877Z,16.54
2023-10-21T19:22:21.228Z,16.44
2023-10-21T19:24:47.692Z,16.17
2023-10-21T19:27:14.209Z,16.48
2023-10-21T19:29:40.605Z,16.37
2023-10-21T19:32:07.164Z,16.31
2023-10-21T19:34:34.544Z,16.21
2023-10-21T19:37:00.973Z,16.08
2023-10-21T19:39:30.367Z,15.95
2023-10-21T19:41:57.084Z,15.89
2023-10-21T19:44:27.155Z,16.06
2023-10-21T19:46:55.593Z,15.82
2023-10-21T19:49:24.122Z,15.84
2023-10-21T19:51:51.031Z,16.04
2023-10-21T19:54:17.486Z,15.87
2023-10-21T19:56:43.875Z,15.97
2023-10-21T19:59:10.317Z,16.01
2023-10-21T20:01:36.817Z,16.05
2023-10-21T20:04:03.593Z,16.17
2023-10-21T20:06:31.448Z,16.24
2023-10-21T20:08:57.885Z,16.48
2023-10-21T20:11:24.761Z,16.00
2023-10-21T20:13:51.201Z,16.15
2023-10-21T20:16:17.758Z,15.63
2023-10-21T20:18:45.962Z,15.74
2023-10-21T20:21:13.738Z,15.93
2023-10-21T20:23:43.408Z,16.02
2023-10-21T20:26:14.970Z,16.13
2023-10-21T20:28:42.154Z,16.05
2023-10-21T20:31:09.426Z,16.01
2023-10-21T20:33:36.977Z,16.36
2023-10-21T20:36:10.705Z,15.95
2023-10-21T20:38:39.199Z,15.99
2023-10-21T20:41:14.682Z,16.27
2023-10-21T20:43:42.292Z,15.94
2023-10-21T20:46:09.785Z,16.32
2023-10-21T20:48:39.415Z,16.06
2023-10-21T20:51:07.767Z,16.28
2023-10-21T20:53:34.195Z,16.48
2023-10-21T20:56:00.820Z,16.35
2023-10-21T20:58:27.353Z,16.21
2023-10-21T21:00:54.963Z,16.39
2023-10-21T21:03:22.995Z,16.47
2023-10-21T21:05:49.421Z,15.90
2023-10-21T21:08:16.233Z,15.85
2023-10-21T21:10:42.645Z,15.79
2023-10-21T21:13:09.128Z,15.85
2023-10-21T21:15:35.960Z,15.82
2023-10-21T21:18:03.042Z,15.80
2023-10-21T21:20:29.592Z,15.78
2023-10-21T21:22:55.946Z,15.87
2023-10-21T21:25:22.330Z,15.74
2023-10-21T21:27:51.602Z,15.86
2023-10-21T21:30:18.420Z,16.18
2023-10-21T21:32:45.216Z,15.64
2023-10-21T21:35:11.748Z,15.71
2023-10-21T21:37:38.114Z,16.02
2023-10-21T21:40:05.459Z,15.74
2023-10-21T21:42:32.070Z,15.92
2023-10-21T21:44:58.481Z,15.87
2023-10-21T21:47:24.970Z,15.86
2023-10-21T21:49:51.398Z,15.94
2023-10-21T21:52:17.804Z,15.75
2023-10-21T21:54:46.462Z,15.77
2023-10-21T21:57:13.316Z,15.93
2023-10-21T21:59:41.236Z,15.77
2023-10-21T22:02:09.952Z,16.10
2023-10-21T22:04:37.282Z,15.92
2023-10-21T22:07:04.269Z,15.73
2023-10-21T22:09:31.236Z,15.87
2023-10-21T22:11:59.948Z,15.85
2023-10-21T22:14:26.497Z,16.02
2023-10-21T22:16:53.031Z,16.38
2023-10-21T22:19:19.387Z,16.70
2023-10-21T22:21:51.656Z,15.66
2023-10-21T22:24:18.861Z,16.03
2023-10-21T22:26:48.450Z,16.20
2023-10-21T22:29:16.020Z,15.57
2023-10-21T22:31:43.232Z,15.92
2023-10-21T22:34:10.057Z,15.92
2023-10-21T22:36:36.532Z,16.21
2023-10-21T22:39:05.033Z,16.46
2023-10-21T22:41:31.524Z,16.52
2023-10-21T22:43:58.176Z,16.61
2023-10-21T22:46:24.657Z,15.89
2023-10-21T22:48:51.127Z,16.13
2023-10-21T22:51:19.008Z,16.11
2023-10-21T22:53:45.689Z,15.99
2023-10-21T22:56:12.571Z,15.99
2023-10-21T22:58:39.469Z,16.03
2023-10-21T23:01:10.201Z,16.05
2023-10-21T23:03:36.890Z,15.61
2023-10-21T23:06:06.685Z,16.01
2023-10-21T23:08:38.918Z,15.22
2023-10-21T23:11:06.781Z,15.45
2023-10-21T23:13:33.622Z,15.40
2023-10-21T23:16:00.087Z,15.55
2023-10-21T23:18:27.039Z,15.81
2023-10-21T23:20:54.757Z,15.72
2023-10-21T23:23:22.643Z,15.68
2023-10-21T23:25:49.777Z,15.84
2023-10-21T23:28:16.440Z,15.83
2023-10-21T23:30:42.905Z,15.55
2023-10-21T23:33:09.638Z,15.91
2023-10-21T23:35:37.682Z,15.46
2023-10-21T23:38:06.100Z,15.59
2023-10-21T23:40:32.484Z,15.77
2023-10-21T23:42:59.605Z,15.77
2023-10-21T23:45:26.158Z,15.67
2023-10-21T23:47:52.927Z,15.84
2023-10-21T23:50:19.910Z,15.81
2023-10-21T23:52:46.633Z,15.83
2023-10-21T23:55:14.022Z,15.73
2023-10-21T23:57:41.625Z,15.55
